Time;durP1;ratioP1;P1;durP2;ratioP2;P2;SDS_P1;SDS_P2;PMS_P1;PMS_P2;Temp;Humidity;BMP_temperature;BMP_pressure;BME280_temperature;BME280_humidity;BME280_pressure;Samples;Min_cycle;Max_cycle;Signal;HPM_P1;HPM_P2
2021/08/16 00:01:49;;;;;;;13.00;3.20;;;;;;;14.58;100.00;101119.03;5223017;28;20028;-81
2021/08/16 00:04:20;;;;;;;22.15;3.80;;;;;;;14.55;100.00;101122.09;5222680;28;20024;-81
2021/08/16 00:06:50;;;;;;;16.30;4.07;;;;;;;14.50;100.00;101111.03;5223009;28;20021;-83
2021/08/16 00:09:21;;;;;;;19.05;3.20;;;;;;;14.55;100.00;101123.97;5201598;28;20036;-81
2021/08/16 00:11:51;;;;;;;15.20;4.05;;;;;;;14.50;100.00;101116.44;5222831;28;20025;-81
2021/08/16 00:14:22;;;;;;;17.15;3.25;;;;;;;14.52;100.00;101116.25;5222524;28;20025;-81
2021/08/16 00:16:52;;;;;;;12.98;3.10;;;;;;;14.48;100.00;101113.91;5222647;28;20025;-81
2021/08/16 00:19:23;;;;;;;18.25;3.40;;;;;;;14.46;100.00;101109.72;5222492;28;20054;-81
2021/08/16 00:21:53;;;;;;;15.48;2.97;;;;;;;14.43;100.00;101110.91;5222569;28;20021;-80
2021/08/16 00:24:24;;;;;;;13.48;3.45;;;;;;;14.50;100.00;101119.97;5222829;28;20025;-81
2021/08/16 00:26:55;;;;;;;13.20;3.33;;;;;;;14.55;100.00;101114.00;5222686;28;20375;-82
2021/08/16 00:29:25;;;;;;;16.27;3.22;;;;;;;14.64;100.00;101112.06;5223299;28;20052;-82
2021/08/16 00:31:56;;;;;;;13.68;3.53;;;;;;;14.68;100.00;101108.81;5222549;28;20027;-82
2021/08/16 00:34:26;;;;;;;13.00;2.90;;;;;;;14.71;100.00;101105.75;5223030;28;20394;-82
2021/08/16 00:36:57;;;;;;;16.30;4.20;;;;;;;14.76;100.00;101097.09;5222988;28;20056;-83
2021/08/16 00:39:28;;;;;;;18.67;3.53;;;;;;;14.82;100.00;101100.88;5222803;28;20025;-80
2021/08/16 00:41:59;;;;;;;17.17;3.10;;;;;;;14.82;100.00;101100.88;5215598;28;20017;-81
2021/08/16 00:44:29;;;;;;;12.93;2.88;;;;;;;14.83;100.00;101098.00;5207668;28;20078;-82
2021/08/16 00:47:01;;;;;;;21.60;3.20;;;;;;;14.86;100.00;101099.47;5221225;28;20135;-81
2021/08/16 00:49:32;;;;;;;16.90;3.17;;;;;;;14.84;100.00;101096.13;5220915;28;20033;-81
2021/08/16 00:52:04;;;;;;;12.30;3.00;;;;;;;14.87;100.00;101098.47;5221211;28;20021;-83
2021/08/16 00:54:36;;;;;;;13.27;2.80;;;;;;;14.88;100.00;101100.13;5208615;28;20029;-82
2021/08/16 00:57:07;;;;;;;17.00;2.97;;;;;;;14.94;100.00;101100.22;5222430;28;20021;-82
2021/08/16 00:59:37;;;;;;;17.60;3.67;;;;;;;14.96;100.00;101095.47;5209040;28;20036;-83
2021/08/16 01:02:08;;;;;;;19.38;3.28;;;;;;;14.99;100.00;101105.03;5222323;28;20405;-82
2021/08/16 01:04:39;;;;;;;16.52;3.17;;;;;;;15.02;100.00;101097.41;5222358;28;20693;-81
2021/08/16 01:07:09;;;;;;;15.95;3.63;;;;;;;14.95;100.00;101098.34;5222090;28;20364;-82
2021/08/16 01:09:46;;;;;;;12.00;2.78;;;;;;;14.96;100.00;101102.72;5222247;28;20082;-81
2021/08/16 01:12:17;;;;;;;14.57;3.28;;;;;;;14.91;100.00;101105.13;5210050;28;20025;-82
2021/08/16 01:14:47;;;;;;;12.73;3.13;;;;;;;14.94;100.00;101093.97;5226347;28;20025;-82
2021/08/16 01:17:18;;;;;;;17.08;3.63;;;;;;;14.84;100.00;101096.97;5226647;28;20020;-81
2021/08/16 01:19:49;;;;;;;18.42;3.13;;;;;;;14.73;100.00;101087.47;5226145;28;20029;-81
2021/08/16 01:22:20;;;;;;;16.02;3.08;;;;;;;14.75;100.00;101096.22;5221198;28;20021;-82
2021/08/16 01:24:50;;;;;;;7.30;2.60;;;;;;;14.82;100.00;101093.63;5200203;28;20478;-82
2021/08/16 01:27:21;;;;;;;15.10;2.90;;;;;;;14.80;100.00;101092.13;5226510;28;20385;-82
2021/08/16 01:29:52;;;;;;;17.67;2.47;;;;;;;14.80;100.00;101094.81;5225617;28;20031;-82
2021/08/16 01:32:22;;;;;;;11.90;3.30;;;;;;;14.82;100.00;101100.88;5226200;28;20047;-83
2021/08/16 01:34:53;;;;;;;17.20;3.05;;;;;;;14.83;100.00;101094.47;5226037;28;20401;-82
2021/08/16 01:37:24;;;;;;;13.27;3.50;;;;;;;14.89;100.00;101099.09;5225453;28;20029;-82
2021/08/16 01:39:55;;;;;;;17.38;3.22;;;;;;;14.92;100.00;101099.56;5222236;28;20107;-82
2021/08/16 01:42:25;;;;;;;9.43;2.55;;;;;;;14.94;100.00;101100.22;5221124;28;20164;-81
2021/08/16 01:44:56;;;;;;;15.23;3.83;;;;;;;14.94;100.00;101104.78;5225023;28;20029;-83
2021/08/16 01:47:27;;;;;;;19.55;3.10;;;;;;;15.05;100.00;101106.97;5225011;28;20449;-82
2021/08/16 01:49:58;;;;;;;18.65;3.13;;;;;;;15.03;100.00;101109.06;5224706;28;20094;-81
2021/08/16 01:52:32;;;;;;;10.45;2.95;;;;;;;15.02;100.00;101101.97;5225013;28;20121;-82
2021/08/16 01:55:05;;;;;;;11.85;2.70;;;;;;;15.09;100.00;101096.66;5224716;28;20096;-82
2021/08/16 01:57:36;;;;;;;19.08;2.95;;;;;;;15.11;100.00;101095.44;5224713;28;20397;-82
2021/08/16 02:00:07;;;;;;;16.85;3.40;;;;;;;15.09;100.00;101097.47;5225158;28;20084;-83
2021/08/16 02:02:39;;;;;;;14.43;2.90;;;;;;;15.14;100.00;101094.22;5224893;28;20082;-83
2021/08/16 02:05:10;;;;;;;15.10;2.50;;;;;;;15.13;100.00;101093.38;5214623;28;20021;-81
2021/08/16 02:07:40;;;;;;;14.48;3.00;;;;;;;15.19;100.00;101091.78;5221381;28;20029;-84
2021/08/16 02:10:11;;;;;;;15.95;3.08;;;;;;;15.21;100.00;101090.56;5224835;28;20055;-81
2021/08/16 02:12:42;;;;;;;16.10;4.05;;;;;;;15.18;100.00;101085.53;5225218;28;20104;-83
2021/08/16 02:15:13;;;;;;;26.88;3.38;;;;;;;15.16;100.00;101089.44;5225114;28;20029;-83
2021/08/16 02:17:43;;;;;;;15.07;3.10;;;;;;;15.15;100.00;101083.19;5225213;28;20364;-81
2021/08/16 02:20:14;;;;;;;15.68;3.10;;;;;;;15.16;100.00;101090.31;5224711;28;20040;-81
2021/08/16 02:22:44;;;;;;;21.30;3.53;;;;;;;15.15;100.00;101085.91;5225173;28;20021;-82
2021/08/16 02:25:15;;;;;;;15.82;2.70;;;;;;;15.12;100.00;101088.16;5223019;28;20479;-81
2021/08/16 02:27:48;;;;;;;14.70;2.80;;;;;;;15.10;100.00;101080.22;5223542;28;20056;-82
2021/08/16 02:30:19;;;;;;;18.30;2.65;;;;;;;15.15;100.00;101087.78;5224669;28;20067;-81
2021/08/16 02:32:50;;;;;;;15.02;3.45;;;;;;;15.19;100.00;101087.19;5224653;28;20110;-83
2021/08/16 02:35:20;;;;;;;13.52;2.47;;;;;;;15.24;100.00;101089.34;5224989;28;20032;-83
2021/08/16 02:37:51;;;;;;;6.75;2.20;;;;;;;15.24;100.00;101087.47;5224771;28;20044;-81
2021/08/16 02:40:21;;;;;;;9.27;3.08;;;;;;;15.28;100.00;101088.75;5218534;28;20399;-82
2021/08/16 02:42:52;;;;;;;11.27;2.45;;;;;;;15.35;100.00;101088.81;5193145;28;20033;-81
2021/08/16 02:45:22;;;;;;;13.75;2.97;;;;;;;15.38;100.00;101084.91;5224648;28;20032;-82
2021/08/16 02:47:53;;;;;;;17.13;2.60;;;;;;;15.32;100.00;101081.13;5224263;28;20425;-82
2021/08/16 02:50:24;;;;;;;23.75;4.18;;;;;;;15.33;100.00;101084.66;5224269;28;20064;-82
2021/08/16 02:52:55;;;;;;;13.98;2.95;;;;;;;15.38;100.00;101080.34;5221623;28;20035;-83
2021/08/16 02:55:25;;;;;;;17.50;3.05;;;;;;;15.39;100.00;101073.91;5213998;28;20036;-84
2021/08/16 02:57:56;;;;;;;10.45;3.17;;;;;;;15.36;100.00;101073.44;5220649;28;20022;-82
2021/08/16 03:00:26;;;;;;;11.48;2.25;;;;;;;15.35;100.00;101069.91;5214530;28;20100;-83
2021/08/16 03:02:57;;;;;;;11.65;2.78;;;;;;;15.37;100.00;101069.72;5223632;28;20028;-81
2021/08/16 03:05:27;;;;;;;11.07;2.58;;;;;;;15.34;100.00;101070.09;5211831;28;20112;-82
2021/08/16 03:07:58;;;;;;;17.17;2.65;;;;;;;15.31;100.00;101060.50;5222627;28;20021;-82
2021/08/16 03:10:28;;;;;;;12.55;2.28;;;;;;;15.32;100.00;101064.06;5223376;28;20430;-83
2021/08/16 03:12:59;;;;;;;13.75;2.95;;;;;;;15.28;100.00;101066.31;5223484;28;20025;-82
2021/08/16 03:15:30;;;;;;;11.60;2.63;;;;;;;15.27;100.00;101056.53;5223492;28;20029;-84
2021/08/16 03:18:01;;;;;;;16.90;2.63;;;;;;;15.23;100.00;101061.47;5223757;28;20028;-83
2021/08/16 03:20:31;;;;;;;11.43;3.28;;;;;;;15.27;100.00;101056.53;5209606;28;20048;-83
2021/08/16 03:23:02;;;;;;;15.57;3.20;;;;;;;15.26;100.00;101062.94;5223271;28;20474;-81
2021/08/16 03:25:32;;;;;;;12.73;2.83;;;;;;;15.28;100.00;101063.59;5223223;28;20032;-80
2021/08/16 03:28:03;;;;;;;13.55;2.83;;;;;;;15.20;100.00;101067.25;5223404;28;20025;-81
2021/08/16 03:30:33;;;;;;;12.23;2.95;;;;;;;15.26;100.00;101066.50;5223373;28;20033;-80
2021/08/16 03:33:04;;;;;;;14.93;2.50;;;;;;;15.20;100.00;101061.00;5222259;28;20678;-80
2021/08/16 03:35:35;;;;;;;9.60;2.38;;;;;;;15.20;100.00;101059.13;5221581;28;20593;-81
2021/08/16 03:38:05;;;;;;;19.02;4.22;;;;;;;15.20;100.00;101044.78;5221867;28;20558;-81
2021/08/16 03:40:36;;;;;;;13.05;2.40;;;;;;;15.18;100.00;101057.69;5214616;28;20431;-82
2021/08/16 03:43:06;;;;;;;12.52;3.00;;;;;;;15.19;100.00;101054.78;5221549;28;20025;-81
2021/08/16 03:45:37;;;;;;;6.97;2.35;;;;;;;15.25;100.00;101059.41;5221643;28;20056;-80
2021/08/16 03:48:07;;;;;;;15.85;3.50;;;;;;;15.26;100.00;101058.41;5221652;28;20033;-80
2021/08/16 03:50:38;;;;;;;16.60;2.65;;;;;;;15.30;100.00;101061.53;5221975;28;20025;-79
2021/08/16 03:53:08;;;;;;;16.90;2.47;;;;;;;15.27;100.00;101064.63;5221552;28;20521;-80
2021/08/16 03:55:39;;;;;;;9.85;2.67;;;;;;;15.27;100.00;101061.94;5221515;28;20024;-82
2021/08/16 03:58:10;;;;;;;10.27;2.95;;;;;;;15.33;100.00;101055.75;5221843;28;20135;-80
2021/08/16 04:00:41;;;;;;;9.85;2.20;;;;;;;15.36;100.00;101068.03;5222038;28;20097;-80
2021/08/16 04:03:11;;;;;;;13.52;2.95;;;;;;;15.29;100.00;101060.69;5218658;28;20474;-80
2021/08/16 04:05:42;;;;;;;14.32;2.53;;;;;;;15.27;100.00;101062.78;5221633;28;20083;-80
2021/08/16 04:08:13;;;;;;;14.75;3.40;;;;;;;15.28;100.00;101066.31;5222076;28;20048;-81
2021/08/16 04:10:43;;;;;;;12.23;3.45;;;;;;;15.21;100.00;101068.94;5221176;28;20486;-83
2021/08/16 04:13:13;;;;;;;19.20;3.10;;;;;;;15.28;100.00;101069.00;5222316;28;20024;-81
2021/08/16 04:15:44;;;;;;;19.55;2.80;;;;;;;15.26;100.00;101066.50;5216624;28;20558;-80
2021/08/16 04:18:14;;;;;;;9.02;2.78;;;;;;;15.37;100.00;101069.72;5201597;28;20441;-82
2021/08/16 04:20:45;;;;;;;13.98;3.28;;;;;;;15.36;100.00;101085.13;5221234;28;20052;-81
2021/08/16 04:23:16;;;;;;;15.05;2.90;;;;;;;15.35;100.00;101079.88;5221743;28;20051;-83
2021/08/16 04:25:46;;;;;;;17.95;3.53;;;;;;;15.34;100.00;101086.31;5222061;28;20025;-80
2021/08/16 04:28:16;;;;;;;17.90;3.25;;;;;;;15.34;100.00;101089.84;5222262;28;20021;-81
2021/08/16 04:30:48;;;;;;;14.52;3.08;;;;;;;15.37;100.00;101081.38;5213147;28;20053;-80
2021/08/16 04:33:20;;;;;;;11.88;2.88;;;;;;;15.39;100.00;101084.72;5215048;28;20716;-80
2021/08/16 04:35:52;;;;;;;14.18;2.75;;;;;;;15.38;100.00;101080.34;5211376;28;20047;-80
2021/08/16 04:38:23;;;;;;;20.55;2.72;;;;;;;15.36;100.00;101073.44;5190982;28;20491;-80
2021/08/16 04:40:54;;;;;;;17.98;3.38;;;;;;;15.42;100.00;101088.91;5214789;28;20021;-84
2021/08/16 04:43:24;;;;;;;17.55;2.75;;;;;;;15.52;100.00;101078.63;5191246;28;20013;-80
2021/08/16 04:45:55;;;;;;;16.83;4.25;;;;;;;15.51;100.00;101079.63;5222097;28;20500;-82
2021/08/16 04:48:25;;;;;;;17.75;3.17;;;;;;;15.48;100.00;101074.63;5225125;28;20028;-82
2021/08/16 04:50:56;;;;;;;14.52;3.03;;;;;;;15.53;100.00;101070.31;5225855;28;20025;-83
2021/08/16 04:53:26;;;;;;;13.85;3.20;;;;;;;15.59;100.00;101078.69;5218430;28;20064;-80
2021/08/16 04:55:57;;;;;;;14.00;3.03;;;;;;;15.52;100.00;101078.63;5206494;28;20013;-80
2021/08/16 04:58:27;;;;;;;14.05;3.22;;;;;;;15.40;100.00;101074.75;5225749;28;20098;-80
2021/08/16 05:00:58;;;;;;;17.00;3.17;;;;;;;15.50;100.00;101075.25;5225180;28;20117;-82
2021/08/16 05:03:28;;;;;;;15.63;2.97;;;;;;;15.48;100.00;101078.16;5225623;28;20035;-81
2021/08/16 05:06:05;;;;;;;17.60;3.30;;;;;;;15.56;100.00;101079.88;5211795;28;20024;-79
2021/08/16 05:08:36;;;;;;;10.27;2.60;;;;;;;15.59;100.00;101071.41;5225665;28;20493;-82
2021/08/16 05:11:07;;;;;;;25.15;4.07;;;;;;;15.51;100.00;101068.81;5224801;28;20033;-80
2021/08/16 05:13:37;;;;;;;18.80;3.17;;;;;;;15.58;100.00;101069.72;5225162;28;20101;-80
2021/08/16 05:16:08;;;;;;;12.13;3.42;;;;;;;15.63;100.00;101074.56;5224954;28;20035;-81
2021/08/16 05:18:38;;;;;;;13.73;2.92;;;;;;;15.65;100.00;101075.22;5225147;28;20042;-82
2021/08/16 05:21:09;;;;;;;13.88;4.18;;;;;;;15.70;100.00;101068.19;5225166;28;20028;-82
2021/08/16 05:23:39;;;;;;;13.30;3.03;;;;;;;15.71;100.00;101069.91;5222934;28;20056;-80
2021/08/16 05:26:10;;;;;;;18.40;3.67;;;;;;;15.69;100.00;101071.94;5213405;28;20096;-80
2021/08/16 05:28:40;;;;;;;16.67;4.20;;;;;;;15.75;100.00;101075.72;5207836;28;20032;-83
2021/08/16 05:31:11;;;;;;;15.40;3.95;;;;;;;15.77;100.00;101077.22;5225119;28;20067;-83
2021/08/16 05:33:41;;;;;;;19.73;3.60;;;;;;;15.83;100.00;101080.19;5220998;28;20037;-79
2021/08/16 05:36:12;;;;;;;24.13;4.57;;;;;;;15.87;100.00;101079.59;5214257;28;20071;-80
2021/08/16 05:38:43;;;;;;;22.30;5.00;;;;;;;15.90;100.00;101083.75;5224222;28;20029;-80
2021/08/16 05:41:14;;;;;;;14.65;3.95;;;;;;;16.00;100.00;101090.50;5217117;28;20053;-80
2021/08/16 05:43:44;;;;;;;18.58;3.40;;;;;;;16.04;100.00;101091.78;5216418;28;20060;-80
2021/08/16 05:46:14;;;;;;;15.63;4.20;;;;;;;16.07;100.00;101090.59;5218709;28;20368;-78
2021/08/16 05:48:45;;;;;;;17.17;3.67;;;;;;;16.07;100.00;101084.34;5223959;28;20029;-82
2021/08/16 05:51:15;;;;;;;14.15;3.47;;;;;;;16.09;100.00;101083.09;5223373;28;20039;-80
2021/08/16 05:53:47;;;;;;;16.95;3.90;;;;;;;16.14;100.00;101082.50;5223943;28;20077;-82
2021/08/16 05:56:17;;;;;;;15.95;4.60;;;;;;;16.12;100.00;101080.00;5224264;28;20056;-82
2021/08/16 05:58:48;;;;;;;24.05;3.97;;;;;;;16.24;100.00;101075.72;5223615;28;20016;-80
2021/08/16 06:01:18;;;;;;;14.85;3.58;;;;;;;16.31;100.00;101081.16;5224280;28;20044;-81
2021/08/16 06:03:49;;;;;;;13.23;3.65;;;;;;;16.39;100.00;101083.72;5224861;28;20029;-80
2021/08/16 06:06:19;;;;;;;14.77;3.70;;;;;;;16.38;100.00;101083.94;5224448;28;20035;-84
2021/08/16 06:08:50;;;;;;;21.10;4.13;;;;;;;16.49;100.00;101073.38;5223768;28;20021;-85
2021/08/16 06:11:20;;;;;;;17.52;3.97;;;;;;;16.42;100.00;101077.09;5220623;28;20033;-81
2021/08/16 06:13:51;;;;;;;15.30;4.18;;;;;;;16.49;100.00;101084.19;5224103;28;20493;-82
2021/08/16 06:16:22;;;;;;;18.08;3.88;;;;;;;16.57;100.00;101075.91;5224333;28;20020;-83
2021/08/16 06:18:52;;;;;;;16.08;3.72;;;;;;;16.56;100.00;101076.09;5224423;28;20051;-84
2021/08/16 06:21:23;;;;;;;13.85;4.32;;;;;;;16.63;100.00;101071.56;5223886;28;20066;-82
2021/08/16 06:23:53;;;;;;;17.88;3.67;;;;;;;16.72;100.00;101066.88;5206594;28;20033;-82
2021/08/16 06:26:23;;;;;;;13.95;4.70;;;;;;;16.73;100.00;101063.13;5223969;28;20478;-80
2021/08/16 06:28:54;;;;;;;14.52;4.05;;;;;;;16.83;100.00;101066.28;5223993;28;20021;-82
2021/08/16 06:31:24;;;;;;;11.60;3.80;;;;;;;16.74;100.00;101060.19;5206562;28;20029;-82
2021/08/16 06:33:55;;;;;;;12.98;4.10;;;;;;;16.81;100.00;101052.91;5210950;28;20029;-84
2021/08/16 06:36:26;;;;;;;13.10;3.72;;;;;;;16.96;100.00;101057.34;5223890;28;20021;-86
2021/08/16 06:38:57;;;;;;;11.30;4.20;;;;;;;17.01;100.00;101066.53;5224124;28;20040;-83
2021/08/16 06:41:27;;;;;;;18.20;3.70;;;;;;;17.00;100.00;101072.19;5199181;28;20033;-83
2021/08/16 06:43:58;;;;;;;16.00;4.35;;;;;;;17.27;100.00;101083.94;5224661;28;20037;-83
2021/08/16 06:46:28;;;;;;;13.95;3.75;;;;;;;17.23;100.00;101080.81;5223057;28;20087;-84
2021/08/16 06:48:59;;;;;;;15.13;3.70;;;;;;;17.42;100.00;101084.63;5222504;28;20031;-82
2021/08/16 06:51:29;;;;;;;13.68;4.60;;;;;;;17.39;100.00;101089.59;5209579;28;20111;-84
2021/08/16 06:54:00;;;;;;;17.08;4.32;;;;;;;17.42;100.00;101089.19;5210596;28;20048;-82
2021/08/16 06:56:30;;;;;;;11.32;3.45;;;;;;;17.29;100.00;101095.41;5204049;28;20428;-85
2021/08/16 06:59:01;;;;;;;11.40;3.67;;;;;;;17.33;100.00;101099.41;5222516;28;20025;-82
2021/08/16 07:01:31;;;;;;;16.83;4.13;;;;;;;17.28;100.00;101100.00;5222609;28;20101;-82
2021/08/16 07:04:02;;;;;;;13.82;4.10;;;;;;;17.43;100.00;101104.44;5222625;28;20021;-85
2021/08/16 07:06:32;;;;;;;21.15;5.05;;;;;;;17.52;100.00;101090.47;5224265;28;20090;-82
2021/08/16 07:09:03;;;;;;;18.65;5.15;;;;;;;17.55;100.00;101083.78;5223765;28;20426;-84
2021/08/16 07:11:34;;;;;;;13.52;4.78;;;;;;;17.54;100.00;101088.38;5223486;28;20025;-83
2021/08/16 07:14:04;;;;;;;15.52;5.55;;;;;;;17.51;100.00;101093.38;5223426;28;20028;-84
2021/08/16 07:16:35;;;;;;;14.63;4.95;;;;;;;17.61;100.00;101091.94;5224296;28;20021;-82
2021/08/16 07:19:05;;;;;;;18.45;5.55;;;;;;;17.77;100.00;101092.59;5223799;28;20025;-82
2021/08/16 07:21:35;;;;;;;16.83;4.90;;;;;;;17.85;100.00;101101.38;5223791;28;20024;-83
2021/08/16 07:24:06;;;;;;;13.63;4.47;;;;;;;17.99;100.00;101101.41;5223861;28;20118;-85
2021/08/16 07:26:37;;;;;;;18.02;4.43;;;;;;;18.18;100.00;101106.00;5223329;28;20040;-81
2021/08/16 07:29:07;;;;;;;14.23;3.97;;;;;;;18.25;100.00;101098.66;5223922;28;20100;-83
2021/08/16 07:31:37;;;;;;;10.18;3.55;;;;;;;18.33;100.00;101103.06;5223661;28;20021;-80
2021/08/16 07:34:08;;;;;;;8.13;3.42;;;;;;;18.41;100.00;101100.09;5223651;28;20436;-82
2021/08/16 07:36:38;;;;;;;9.48;3.95;;;;;;;18.41;100.00;101108.25;5223761;28;20031;-83
2021/08/16 07:39:09;;;;;;;18.50;3.90;;;;;;;18.49;100.00;101099.06;5206004;28;20032;-82
2021/08/16 07:41:40;;;;;;;12.18;3.78;;;;;;;18.57;100.00;101093.38;5216702;28;20029;-81
2021/08/16 07:44:10;;;;;;;11.73;4.13;;;;;;;18.52;100.00;101096.72;5223463;28;20028;-82
2021/08/16 07:46:42;;;;;;;11.30;3.95;;;;;;;18.54;100.00;101096.53;5223615;28;20108;-80
2021/08/16 07:49:12;;;;;;;14.80;4.35;;;;;;;18.48;100.00;101102.81;5222887;28;20028;-84
2021/08/16 07:51:43;;;;;;;11.38;4.20;;;;;;;18.35;100.00;101093.63;5216289;28;20688;-79
2021/08/16 07:54:13;;;;;;;10.38;4.38;;;;;;;18.32;100.00;101104.94;5215987;28;20029;-85
2021/08/16 07:56:49;;;;;;;14.82;5.03;;;;;;;18.20;100.00;101103.06;5210837;28;20467;-82
2021/08/16 07:59:20;;;;;;;10.07;4.47;;;;;;;17.76;100.00;101099.91;5223235;28;20104;-84
2021/08/16 08:01:50;;;;;;;15.27;6.20;;;;;;;17.49;100.00;101106.31;5223269;28;20108;-83
2021/08/16 08:04:21;;;;;;;14.70;5.45;;;;;;;17.24;100.00;101106.88;5205464;28;20068;-80
2021/08/16 08:06:51;;;;;;;15.30;5.93;;;;;;;17.17;100.00;101105.16;5223604;28;20489;-82
2021/08/16 08:09:22;;;;;;;11.90;4.75;;;;;;;17.06;100.00;101107.41;5205668;28;20549;-84
2021/08/16 08:11:52;;;;;;;15.23;5.03;;;;;;;17.06;100.00;101110.13;5223765;28;20441;-83
2021/08/16 08:14:23;;;;;;;15.80;4.95;;;;;;;16.91;100.00;101117.56;5205184;28;20053;-84
2021/08/16 08:16:53;;;;;;;10.95;4.90;;;;;;;16.79;100.00;101127.31;5223167;28;20124;-80
2021/08/16 08:19:24;;;;;;;10.85;3.80;;;;;;;16.60;100.00;101136.97;5214936;28;20018;-84
2021/08/16 08:21:54;;;;;;;8.02;3.38;;;;;;;16.54;100.00;101138.59;5216356;28;20059;-82
2021/08/16 08:24:25;;;;;;;13.13;4.30;;;;;;;16.44;100.00;101135.41;5205106;28;20020;-81
2021/08/16 08:26:55;;;;;;;8.35;3.72;;;;;;;16.34;100.00;101143.03;5208947;28;20134;-81
2021/08/16 08:29:26;;;;;;;14.50;4.82;;;;;;;16.22;100.00;101153.56;5222499;28;20032;-81
2021/08/16 08:31:56;;;;;;;12.20;4.68;;;;;;;16.18;100.00;101141.47;5205255;28;20049;-83
2021/08/16 08:34:26;;;;;;;17.27;4.82;;;;;;;16.05;100.00;101163.81;5222995;28;20363;-80
2021/08/16 08:36:57;;;;;;;14.25;5.28;;;;;;;16.08;100.00;101159.06;5222391;28;20412;-79
2021/08/16 08:39:27;;;;;;;12.02;4.68;;;;;;;16.06;100.00;101156.53;5221783;28;20352;-82
2021/08/16 08:41:58;;;;;;;8.48;5.00;;;;;;;15.97;100.00;101161.28;5214928;28;20021;-81
2021/08/16 08:44:29;;;;;;;8.93;4.28;;;;;;;15.97;100.00;101172.09;5209051;28;20081;-80
2021/08/16 08:47:00;;;;;;;8.50;3.80;;;;;;;16.03;100.00;101175.91;5214623;28;20076;-83
2021/08/16 08:49:32;;;;;;;10.13;3.60;;;;;;;15.94;100.00;101175.19;5216771;28;20036;-81
2021/08/16 08:52:03;;;;;;;7.88;4.35;;;;;;;15.91;100.00;101190.94;5222707;28;20078;-83
2021/08/16 08:54:35;;;;;;;6.18;3.92;;;;;;;15.76;100.00;101191.88;5222029;28;20024;-81
2021/08/16 08:57:15;;;;;;;10.23;3.80;;;;;;;15.77;100.00;101195.41;5212162;28;20025;-82
2021/08/16 08:59:45;;;;;;;11.30;3.67;;;;;;;15.80;100.00;101197.72;5220499;28;20024;-80
2021/08/16 09:02:17;;;;;;;9.23;4.05;;;;;;;15.81;100.00;101199.38;5222005;28;20043;-80
2021/08/16 09:04:54;;;;;;;10.43;3.60;;;;;;;15.75;100.00;101201.00;5204359;28;20386;-81
2021/08/16 09:07:31;;;;;;;10.82;3.90;;;;;;;15.78;100.00;101203.31;5191245;28;20021;-82
2021/08/16 09:10:05;;;;;;;13.65;4.20;;;;;;;15.83;100.00;101212.75;5221642;28;20021;-80
2021/08/16 09:12:36;;;;;;;12.55;4.20;;;;;;;15.94;100.00;101196.81;5216723;28;20116;-79
2021/08/16 09:15:18;;;;;;;8.32;3.42;;;;;;;16.18;100.00;101202.88;5212923;28;20013;-80
2021/08/16 09:17:51;;;;;;;10.88;4.10;;;;;;;16.38;100.00;101208.47;5221831;28;20589;-81
2021/08/16 09:20:26;;;;;;;10.93;4.40;;;;;;;16.54;100.00;101210.88;5221846;28;20021;-82
2021/08/16 09:23:01;;;;;;;11.90;4.20;;;;;;;16.68;100.00;101207.25;5221757;28;20031;-82
2021/08/16 09:25:36;;;;;;;8.83;3.97;;;;;;;17.00;100.00;101215.81;5209144;28;20044;-83
2021/08/16 09:28:07;;;;;;;17.10;3.85;;;;;;;17.32;100.00;101226.00;5221721;28;20337;-79
2021/08/16 09:30:40;;;;;;;10.75;3.90;;;;;;;17.42;100.00;101224.78;5214628;28;20025;-81
2021/08/16 09:33:14;;;;;;;12.63;4.00;;;;;;;17.48;100.00;101226.72;5214442;28;20029;-80
2021/08/16 09:35:50;;;;;;;12.75;4.05;;;;;;;17.54;100.00;101229.44;5223873;28;20032;-81
2021/08/16 09:38:32;;;;;;;9.98;4.38;;;;;;;17.80;100.00;101233.31;5222058;28;20092;-82
2021/08/16 09:41:06;;;;;;;14.45;3.83;;;;;;;17.83;100.00;101225.59;5209423;28;20108;-80
2021/08/16 09:43:36;;;;;;;8.82;3.42;;;;;;;18.10;100.00;101234.63;5217784;28;20079;-80
2021/08/16 09:46:15;;;;;;;9.68;3.72;;;;;;;17.98;100.00;101222.72;5204264;28;20570;-81
2021/08/16 09:48:56;;;;;;;9.20;3.53;;;;;;;18.08;100.00;101233.19;5224090;28;20037;-79
2021/08/16 09:51:27;;;;;;;12.70;4.07;;;;;;;18.17;100.00;101244.66;5224305;28;20020;-81
2021/08/16 09:53:59;;;;;;;11.82;4.28;;;;;;;18.15;100.00;101244.03;5224230;28;20055;-79
2021/08/16 09:56:30;;;;;;;10.68;3.80;;;;;;;18.47;100.00;101239.66;5223613;28;20021;-81
2021/08/16 09:59:00;;;;;;;9.52;3.63;;;;;;;18.51;100.00;101246.38;5224075;28;20371;-81
2021/08/16 10:01:31;;;;;;;11.02;3.65;;;;;;;18.78;100.00;101245.34;5210353;28;20031;-81
2021/08/16 10:04:02;;;;;;;8.48;3.67;;;;;;;19.00;100.00;101250.53;5223648;28;20501;-81
2021/08/16 10:06:33;;;;;;;12.43;3.70;;;;;;;19.12;100.00;101254.28;5223994;28;20028;-81
2021/08/16 10:09:04;;;;;;;11.52;3.58;;;;;;;18.76;100.00;101252.03;5223451;28;20037;-80
2021/08/16 10:11:36;;;;;;;13.07;3.90;;;;;;;18.35;100.00;101264.75;5223699;28;20086;-79
2021/08/16 10:14:07;;;;;;;12.80;4.55;;;;;;;18.06;100.00;101270.53;5223283;28;20029;-78
2021/08/16 10:16:40;;;;;;;13.88;4.85;;;;;;;17.93;100.00;101276.78;5223466;28;20025;-80
2021/08/16 10:19:15;;;;;;;11.20;5.25;;;;;;;17.97;100.00;101277.19;5222976;28;20021;-81
2021/08/16 10:21:47;;;;;;;13.52;5.40;;;;;;;17.98;100.00;101287.88;5223774;28;20032;-81
2021/08/16 10:24:22;;;;;;;18.10;5.93;;;;;;;18.23;100.00;101284.59;5223394;28;20089;-79
2021/08/16 10:26:57;;;;;;;17.60;6.50;;;;;;;18.60;100.00;101288.59;5223560;28;20028;-80
2021/08/16 10:29:28;;;;;;;14.98;6.22;;;;;;;18.97;100.00;101295.28;5223173;28;20669;-79
2021/08/16 10:32:00;;;;;;;14.88;7.35;;;;;;;19.44;100.00;101298.78;5223458;28;20090;-81
2021/08/16 10:34:55;;;;;;;12.80;7.05;;;;;;;19.62;100.00;101304.38;5223664;28;20112;-84
2021/08/16 10:37:35;;;;;;;20.67;8.02;;;;;;;19.25;100.00;101305.09;5215853;28;20045;-81
2021/08/16 10:40:16;;;;;;;18.25;9.30;;;;;;;18.97;100.00;101299.91;5215915;28;20136;-81
2021/08/16 10:42:48;;;;;;;21.00;9.63;;;;;;;18.74;100.00;101306.59;5223705;28;20025;-81
2021/08/16 10:45:26;;;;;;;19.95;8.65;;;;;;;18.71;100.00;101311.63;5210765;28;20029;-82
2021/08/16 10:48:07;;;;;;;23.33;10.88;;;;;;;18.82;100.00;101308.25;5211387;28;20558;-80
2021/08/16 10:50:38;;;;;;;20.85;10.38;;;;;;;18.79;100.00;101323.13;5224439;28;20394;-84
2021/08/16 10:53:09;;;;;;;24.52;12.38;;;;;;;18.82;100.00;101316.41;5192643;28;20099;-80
2021/08/16 10:55:42;;;;;;;25.08;11.75;;;;;;;18.57;100.00;101316.16;5224224;28;20032;-86
2021/08/16 10:58:12;;;;;;;22.88;11.50;;;;;;;18.56;100.00;101326.19;5224556;28;20021;-82
2021/08/16 11:00:43;;;;;;;29.10;12.70;;;;;;;18.56;100.00;101325.38;5224330;28;20025;-84
2021/08/16 11:03:21;;;;;;;26.92;12.35;;;;;;;18.46;100.00;101311.34;5223937;28;20032;-83
2021/08/16 11:05:52;;;;;;;27.45;12.32;;;;;;;18.36;100.00;101326.16;5224430;28;20100;-81
2021/08/16 11:08:30;;;;;;;26.85;11.95;;;;;;;18.50;100.00;101327.03;5224075;28;20103;-82
2021/08/16 11:11:05;;;;;;;34.90;13.95;;;;;;;18.48;100.00;101337.28;5223758;28;20382;-82
2021/08/16 11:13:35;;;;;;;25.77;13.20;;;;;;;18.42;100.00;101329.94;5161200;28;20496;-84
2021/08/16 11:16:07;;;;;;;28.23;13.65;;;;;;;18.60;100.00;101332.06;5223111;28;20070;-80
2021/08/16 11:18:37;;;;;;;29.33;13.63;;;;;;;18.70;100.00;101337.13;5223525;28;20040;-84
2021/08/16 11:21:10;;;;;;;26.05;13.48;;;;;;;18.90;100.00;101332.53;5228409;28;20021;-82
2021/08/16 11:23:42;;;;;;;32.10;14.23;;;;;;;19.09;100.00;101339.00;5230414;28;20032;-81
2021/08/16 11:26:12;;;;;;;29.55;14.43;;;;;;;18.90;100.00;101354.28;5232179;28;20029;-83
2021/08/16 11:28:43;;;;;;;31.58;15.38;;;;;;;19.01;100.00;101342.75;5231081;28;20036;-84